sensor_id;sensor_type;location;lat;lon;timestamp;P1;durP1;ratioP1;P2;durP2;ratioP2
3881;SDS011;1956;53.482;10.238;2023-04-03T00:04:22;10.50;;;1.57;;
3881;SDS011;1956;53.482;10.238;2023-04-03T00:09:22;2.45;;;1.50;;
3881;SDS011;1956;53.482;10.238;2023-04-03T00:14:23;5.10;;;2.00;;
3881;SDS011;1956;53.482;10.238;2023-04-03T00:19:23;3.38;;;1.45;;
3881;SDS011;1956;53.482;10.238;2023-04-03T00:24:23;4.95;;;1.80;;
3881;SDS011;1956;53.482;10.238;2023-04-03T00:29:24;8.17;;;2.20;;
3881;SDS011;1956;53.482;10.238;2023-04-03T00:34:24;5.83;;;1.80;;
3881;SDS011;1956;53.482;10.238;2023-04-03T00:39:24;3.43;;;1.70;;
3881;SDS011;1956;53.482;10.238;2023-04-03T00:49:49;4.40;;;1.90;;
3881;SDS011;1956;53.482;10.238;2023-04-03T00:54:50;4.90;;;1.90;;
3881;SDS011;1956;53.482;10.238;2023-04-03T00:59:54;4.90;;;1.87;;
3881;SDS011;1956;53.482;10.238;2023-04-03T01:04:55;4.70;;;1.50;;
3881;SDS011;1956;53.482;10.238;2023-04-03T01:09:56;4.47;;;2.15;;
3881;SDS011;1956;53.482;10.238;2023-04-03T01:14:58;15.30;;;2.47;;
3881;SDS011;1956;53.482;10.238;2023-04-03T01:25:32;2.40;;;1.67;;
3881;SDS011;1956;53.482;10.238;2023-04-03T01:30:34;5.93;;;2.23;;
3881;SDS011;1956;53.482;10.238;2023-04-03T01:35:35;4.93;;;2.20;;
3881;SDS011;1956;53.482;10.238;2023-04-03T01:40:35;4.90;;;1.60;;
3881;SDS011;1956;53.482;10.238;2023-04-03T01:45:36;8.18;;;2.30;;
3881;SDS011;1956;53.482;10.238;2023-04-03T01:50:36;7.03;;;2.00;;
3881;SDS011;1956;53.482;10.238;2023-04-03T01:55:36;11.20;;;2.87;;
3881;SDS011;1956;53.482;10.238;2023-04-03T02:00:37;11.32;;;1.90;;
3881;SDS011;1956;53.482;10.238;2023-04-03T02:05:37;2.17;;;1.90;;
3881;SDS011;1956;53.482;10.238;2023-04-03T02:10:37;10.73;;;2.30;;
3881;SDS011;1956;53.482;10.238;2023-04-03T02:15:38;2.80;;;2.20;;
3881;SDS011;1956;53.482;10.238;2023-04-03T02:20:39;6.17;;;2.20;;
3881;SDS011;1956;53.482;10.238;2023-04-03T02:25:39;5.95;;;2.28;;
3881;SDS011;1956;53.482;10.238;2023-04-03T02:30:40;4.60;;;2.20;;
3881;SDS011;1956;53.482;10.238;2023-04-03T02:35:40;7.47;;;2.08;;
3881;SDS011;1956;53.482;10.238;2023-04-03T02:40:40;12.98;;;2.22;;
3881;SDS011;1956;53.482;10.238;2023-04-03T02:45:40;6.18;;;1.77;;
3881;SDS011;1956;53.482;10.238;2023-04-03T02:50:41;4.10;;;2.10;;
3881;SDS011;1956;53.482;10.238;2023-04-03T02:55:41;7.30;;;1.98;;
3881;SDS011;1956;53.482;10.238;2023-04-03T03:00:41;4.30;;;1.97;;
3881;SDS011;1956;53.482;10.238;2023-04-03T03:05:42;3.30;;;2.20;;
3881;SDS011;1956;53.482;10.238;2023-04-03T03:10:42;2.50;;;1.83;;
3881;SDS011;1956;53.482;10.238;2023-04-03T03:15:42;11.67;;;2.30;;
3881;SDS011;1956;53.482;10.238;2023-04-03T03:20:42;4.40;;;2.37;;
3881;SDS011;1956;53.482;10.238;2023-04-03T03:25:43;2.70;;;1.30;;
3881;SDS011;1956;53.482;10.238;2023-04-03T03:30:43;3.40;;;1.80;;
3881;SDS011;1956;53.482;10.238;2023-04-03T03:35:43;8.97;;;1.87;;
3881;SDS011;1956;53.482;10.238;2023-04-03T03:40:44;6.03;;;2.10;;
3881;SDS011;1956;53.482;10.238;2023-04-03T03:45:44;16.95;;;1.63;;
3881;SDS011;1956;53.482;10.238;2023-04-03T03:50:46;5.63;;;1.83;;
3881;SDS011;1956;53.482;10.238;2023-04-03T03:55:46;4.80;;;1.40;;
3881;SDS011;1956;53.482;10.238;2023-04-03T04:00:47;6.87;;;2.00;;
3881;SDS011;1956;53.482;10.238;2023-04-03T04:05:47;5.07;;;1.67;;
3881;SDS011;1956;53.482;10.238;2023-04-03T04:10:47;8.07;;;2.15;;
3881;SDS011;1956;53.482;10.238;2023-04-03T04:15:47;1.85;;;1.70;;
3881;SDS011;1956;53.482;10.238;2023-04-03T04:20:51;6.93;;;1.97;;
3881;SDS011;1956;53.482;10.238;2023-04-03T04:25:51;3.80;;;2.10;;
3881;SDS011;1956;53.482;10.238;2023-04-03T04:30:51;6.57;;;1.67;;
3881;SDS011;1956;53.482;10.238;2023-04-03T04:35:51;3.80;;;1.90;;
3881;SDS011;1956;53.482;10.238;2023-04-03T04:40:52;2.05;;;1.65;;
3881;SDS011;1956;53.482;10.238;2023-04-03T04:46:05;4.35;;;2.33;;
3881;SDS011;1956;53.482;10.238;2023-04-03T04:51:05;7.97;;;1.67;;
3881;SDS011;1956;53.482;10.238;2023-04-03T04:56:06;7.20;;;1.50;;
3881;SDS011;1956;53.482;10.238;2023-04-03T05:01:07;7.73;;;2.43;;
3881;SDS011;1956;53.482;10.238;2023-04-03T05:06:08;3.47;;;2.10;;
3881;SDS011;1956;53.482;10.238;2023-04-03T05:11:08;4.30;;;1.70;;
3881;SDS011;1956;53.482;10.238;2023-04-03T05:16:08;10.23;;;2.20;;
3881;SDS011;1956;53.482;10.238;2023-04-03T05:21:08;8.68;;;1.85;;
3881;SDS011;1956;53.482;10.238;2023-04-03T05:26:08;3.47;;;1.70;;
3881;SDS011;1956;53.482;10.238;2023-04-03T05:31:09;6.30;;;2.67;;
3881;SDS011;1956;53.482;10.238;2023-04-03T05:36:09;4.65;;;1.92;;
3881;SDS011;1956;53.482;10.238;2023-04-03T05:41:09;6.17;;;2.30;;
3881;SDS011;1956;53.482;10.238;2023-04-03T05:46:11;4.18;;;2.20;;
3881;SDS011;1956;53.482;10.238;2023-04-03T05:51:16;5.27;;;2.40;;
3881;SDS011;1956;53.482;10.238;2023-04-03T05:56:17;3.40;;;2.00;;
3881;SDS011;1956;53.482;10.238;2023-04-03T06:01:17;4.20;;;2.43;;
3881;SDS011;1956;53.482;10.238;2023-04-03T06:06:18;9.38;;;2.78;;
3881;SDS011;1956;53.482;10.238;2023-04-03T06:11:18;4.77;;;2.27;;
3881;SDS011;1956;53.482;10.238;2023-04-03T06:16:18;8.55;;;1.75;;
3881;SDS011;1956;53.482;10.238;2023-04-03T06:21:19;8.10;;;2.00;;
3881;SDS011;1956;53.482;10.238;2023-04-03T06:26:19;3.03;;;1.90;;
3881;SDS011;1956;53.482;10.238;2023-04-03T06:31:20;6.87;;;2.00;;
3881;SDS011;1956;53.482;10.238;2023-04-03T06:36:21;4.80;;;1.50;;
3881;SDS011;1956;53.482;10.238;2023-04-03T06:41:21;7.20;;;2.00;;
3881;SDS011;1956;53.482;10.238;2023-04-03T06:46:22;14.70;;;2.40;;
3881;SDS011;1956;53.482;10.238;2023-04-03T06:51:23;8.53;;;1.70;;
3881;SDS011;1956;53.482;10.238;2023-04-03T06:56:24;4.10;;;1.60;;
3881;SDS011;1956;53.482;10.238;2023-04-03T07:01:28;9.23;;;1.80;;
3881;SDS011;1956;53.482;10.238;2023-04-03T07:06:28;3.13;;;1.53;;
3881;SDS011;1956;53.482;10.238;2023-04-03T07:11:28;9.40;;;1.40;;
3881;SDS011;1956;53.482;10.238;2023-04-03T07:16:29;1.80;;;1.70;;
3881;SDS011;1956;53.482;10.238;2023-04-03T07:21:32;2.80;;;1.23;;
3881;SDS011;1956;53.482;10.238;2023-04-03T07:26:32;4.07;;;1.45;;
3881;SDS011;1956;53.482;10.238;2023-04-03T07:31:32;2.97;;;1.10;;
3881;SDS011;1956;53.482;10.238;2023-04-03T07:36:33;6.73;;;1.40;;
3881;SDS011;1956;53.482;10.238;2023-04-03T07:41:34;2.40;;;1.03;;
3881;SDS011;1956;53.482;10.238;2023-04-03T07:46:34;1.38;;;0.82;;
3881;SDS011;1956;53.482;10.238;2023-04-03T07:51:34;1.45;;;0.85;;
3881;SDS011;1956;53.482;10.238;2023-04-03T07:56:35;5.33;;;1.40;;
3881;SDS011;1956;53.482;10.238;2023-04-03T08:01:35;1.20;;;0.60;;
3881;SDS011;1956;53.482;10.238;2023-04-03T08:06:35;1.40;;;0.60;;
3881;SDS011;1956;53.482;10.238;2023-04-03T08:11:38;3.30;;;1.40;;
3881;SDS011;1956;53.482;10.238;2023-04-03T08:16:38;1.00;;;0.70;;
3881;SDS011;1956;53.482;10.238;2023-04-03T08:21:41;3.90;;;0.60;;
3881;SDS011;1956;53.482;10.238;2023-04-03T08:26:42;5.80;;;1.57;;
3881;SDS011;1956;53.482;10.238;2023-04-03T08:31:42;5.93;;;0.95;;
3881;SDS011;1956;53.482;10.238;2023-04-03T08:36:42;2.60;;;1.00;;
3881;SDS011;1956;53.482;10.238;2023-04-03T08:41:43;1.90;;;0.52;;
3881;SDS011;1956;53.482;10.238;2023-04-03T08:52:14;4.77;;;0.70;;
3881;SDS011;1956;53.482;10.238;2023-04-03T08:57:15;1.60;;;1.30;;
3881;SDS011;1956;53.482;10.238;2023-04-03T09:02:30;3.80;;;0.70;;
3881;SDS011;1956;53.482;10.238;2023-04-03T09:07:35;6.30;;;0.67;;
3881;SDS011;1956;53.482;10.238;2023-04-03T09:12:39;11.93;;;1.50;;
3881;SDS011;1956;53.482;10.238;2023-04-03T09:18:28;1.30;;;0.90;;
3881;SDS011;1956;53.482;10.238;2023-04-03T09:23:04;0.80;;;0.70;;
3881;SDS011;1956;53.482;10.238;2023-04-03T09:28:10;1.30;;;0.60;;
3881;SDS011;1956;53.482;10.238;2023-04-03T09:33:10;1.67;;;0.57;;
3881;SDS011;1956;53.482;10.238;2023-04-03T09:43:22;0.60;;;0.50;;
3881;SDS011;1956;53.482;10.238;2023-04-03T09:48:24;3.37;;;0.97;;
3881;SDS011;1956;53.482;10.238;2023-04-03T10:04:18;4.20;;;0.80;;
3881;SDS011;1956;53.482;10.238;2023-04-03T10:09:25;1.73;;;1.37;;
3881;SDS011;1956;53.482;10.238;2023-04-03T10:14:26;5.70;;;1.00;;
3881;SDS011;1956;53.482;10.238;2023-04-03T10:19:34;3.67;;;1.30;;
3881;SDS011;1956;53.482;10.238;2023-04-03T10:24:37;1.17;;;0.70;;
3881;SDS011;1956;53.482;10.238;2023-04-03T10:29:40;3.17;;;1.10;;
3881;SDS011;1956;53.482;10.238;2023-04-03T10:34:42;2.90;;;1.20;;
3881;SDS011;1956;53.482;10.238;2023-04-03T10:40:04;3.37;;;0.80;;
3881;SDS011;1956;53.482;10.238;2023-04-03T10:50:53;1.33;;;0.90;;
3881;SDS011;1956;53.482;10.238;2023-04-03T11:00:47;2.97;;;0.90;;
3881;SDS011;1956;53.482;10.238;2023-04-03T11:05:50;2.50;;;0.80;;
3881;SDS011;1956;53.482;10.238;2023-04-03T11:10:51;2.73;;;0.70;;
3881;SDS011;1956;53.482;10.238;2023-04-03T11:15:53;1.83;;;0.90;;
3881;SDS011;1956;53.482;10.238;2023-04-03T11:21:08;2.97;;;0.70;;
3881;SDS011;1956;53.482;10.238;2023-04-03T11:26:11;2.77;;;1.13;;
3881;SDS011;1956;53.482;10.238;2023-04-03T11:36:48;2.97;;;0.70;;
3881;SDS011;1956;53.482;10.238;2023-04-03T11:41:47;7.03;;;1.40;;
3881;SDS011;1956;53.482;10.238;2023-04-03T11:46:54;0.93;;;0.60;;
3881;SDS011;1956;53.482;10.238;2023-04-03T11:51:55;2.70;;;0.90;;
3881;SDS011;1956;53.482;10.238;2023-04-03T11:56:55;4.53;;;0.70;;
3881;SDS011;1956;53.482;10.238;2023-04-03T12:01:56;1.60;;;0.80;;
3881;SDS011;1956;53.482;10.238;2023-04-03T12:07:16;2.60;;;1.70;;
3881;SDS011;1956;53.482;10.238;2023-04-03T12:12:35;3.23;;;0.90;;
3881;SDS011;1956;53.482;10.238;2023-04-03T12:17:36;2.97;;;0.80;;
3881;SDS011;1956;53.482;10.238;2023-04-03T12:22:36;6.80;;;0.80;;
3881;SDS011;1956;53.482;10.238;2023-04-03T12:27:40;3.42;;;0.90;;
3881;SDS011;1956;53.482;10.238;2023-04-03T12:32:46;3.70;;;1.00;;
3881;SDS011;1956;53.482;10.238;2023-04-03T12:43:34;1.83;;;0.93;;
3881;SDS011;1956;53.482;10.238;2023-04-03T12:48:25;1.90;;;0.93;;
3881;SDS011;1956;53.482;10.238;2023-04-03T12:53:27;1.43;;;0.80;;
3881;SDS011;1956;53.482;10.238;2023-04-03T12:58:30;1.93;;;1.00;;
3881;SDS011;1956;53.482;10.238;2023-04-03T13:03:31;3.87;;;1.00;;
3881;SDS011;1956;53.482;10.238;2023-04-03T13:08:31;1.03;;;0.60;;
3881;SDS011;1956;53.482;10.238;2023-04-03T13:13:32;1.53;;;1.17;;
3881;SDS011;1956;53.482;10.238;2023-04-03T13:18:33;1.53;;;0.70;;
3881;SDS011;1956;53.482;10.238;2023-04-03T13:23:35;1.30;;;0.67;;
3881;SDS011;1956;53.482;10.238;2023-04-03T13:28:36;1.97;;;0.70;;
3881;SDS011;1956;53.482;10.238;2023-04-03T13:33:36;2.33;;;0.73;;
3881;SDS011;1956;53.482;10.238;2023-04-03T13:38:40;2.43;;;0.60;;
3881;SDS011;1956;53.482;10.238;2023-04-03T13:43:40;2.80;;;1.00;;
3881;SDS011;1956;53.482;10.238;2023-04-03T13:48:41;1.80;;;0.83;;
3881;SDS011;1956;53.482;10.238;2023-04-03T13:53:43;4.13;;;0.87;;
3881;SDS011;1956;53.482;10.238;2023-04-03T13:58:58;5.47;;;1.40;;
3881;SDS011;1956;53.482;10.238;2023-04-03T14:04:00;1.40;;;0.90;;
3881;SDS011;1956;53.482;10.238;2023-04-03T14:09:01;5.50;;;1.07;;
3881;SDS011;1956;53.482;10.238;2023-04-03T14:14:02;2.03;;;0.80;;
3881;SDS011;1956;53.482;10.238;2023-04-03T14:19:05;1.07;;;0.80;;
3881;SDS011;1956;53.482;10.238;2023-04-03T14:24:06;2.30;;;1.20;;
3881;SDS011;1956;53.482;10.238;2023-04-03T14:29:06;3.53;;;1.05;;
3881;SDS011;1956;53.482;10.238;2023-04-03T14:34:06;4.07;;;1.20;;
3881;SDS011;1956;53.482;10.238;2023-04-03T14:39:07;1.00;;;0.87;;
3881;SDS011;1956;53.482;10.238;2023-04-03T14:44:09;1.83;;;0.83;;
3881;SDS011;1956;53.482;10.238;2023-04-03T14:49:19;1.63;;;0.80;;
3881;SDS011;1956;53.482;10.238;2023-04-03T14:54:21;3.83;;;1.13;;
3881;SDS011;1956;53.482;10.238;2023-04-03T14:59:25;1.80;;;1.00;;
3881;SDS011;1956;53.482;10.238;2023-04-03T15:04:25;2.13;;;1.00;;
3881;SDS011;1956;53.482;10.238;2023-04-03T15:09:26;1.33;;;0.87;;
3881;SDS011;1956;53.482;10.238;2023-04-03T15:14:27;2.07;;;0.80;;
3881;SDS011;1956;53.482;10.238;2023-04-03T15:19:27;4.57;;;1.13;;
3881;SDS011;1956;53.482;10.238;2023-04-03T15:24:27;3.10;;;0.70;;
3881;SDS011;1956;53.482;10.238;2023-04-03T15:29:27;1.57;;;0.90;;
3881;SDS011;1956;53.482;10.238;2023-04-03T15:34:28;1.70;;;0.97;;
3881;SDS011;1956;53.482;10.238;2023-04-03T15:39:28;2.70;;;1.50;;
3881;SDS011;1956;53.482;10.238;2023-04-03T15:44:29;4.17;;;1.00;;
3881;SDS011;1956;53.482;10.238;2023-04-03T15:49:29;1.40;;;1.03;;
3881;SDS011;1956;53.482;10.238;2023-04-03T15:54:30;2.90;;;1.10;;
3881;SDS011;1956;53.482;10.238;2023-04-03T15:59:30;2.07;;;1.00;;
3881;SDS011;1956;53.482;10.238;2023-04-03T16:04:32;2.40;;;1.00;;
3881;SDS011;1956;53.482;10.238;2023-04-03T16:09:32;1.83;;;0.87;;
3881;SDS011;1956;53.482;10.238;2023-04-03T16:14:34;4.50;;;1.50;;
3881;SDS011;1956;53.482;10.238;2023-04-03T16:19:34;2.58;;;1.10;;
3881;SDS011;1956;53.482;10.238;2023-04-03T16:24:34;10.43;;;2.20;;
3881;SDS011;1956;53.482;10.238;2023-04-03T16:29:35;15.10;;;3.70;;
3881;SDS011;1956;53.482;10.238;2023-04-03T16:34:36;14.03;;;2.27;;
3881;SDS011;1956;53.482;10.238;2023-04-03T16:39:36;1.53;;;1.00;;
3881;SDS011;1956;53.482;10.238;2023-04-03T16:44:39;2.40;;;0.97;;
3881;SDS011;1956;53.482;10.238;2023-04-03T16:49:39;13.30;;;2.57;;
3881;SDS011;1956;53.482;10.238;2023-04-03T16:54:40;2.30;;;1.13;;
3881;SDS011;1956;53.482;10.238;2023-04-03T16:59:40;4.97;;;1.10;;
3881;SDS011;1956;53.482;10.238;2023-04-03T17:04:40;6.33;;;1.17;;
3881;SDS011;1956;53.482;10.238;2023-04-03T17:09:41;4.50;;;1.67;;
3881;SDS011;1956;53.482;10.238;2023-04-03T17:14:41;3.60;;;1.30;;
3881;SDS011;1956;53.482;10.238;2023-04-03T17:19:41;5.82;;;1.35;;
3881;SDS011;1956;53.482;10.238;2023-04-03T17:24:43;2.00;;;1.13;;
3881;SDS011;1956;53.482;10.238;2023-04-03T17:29:43;2.83;;;1.43;;
3881;SDS011;1956;53.482;10.238;2023-04-03T17:34:45;6.93;;;1.60;;
3881;SDS011;1956;53.482;10.238;2023-04-03T17:39:45;2.43;;;1.50;;
3881;SDS011;1956;53.482;10.238;2023-04-03T17:44:46;3.00;;;1.25;;
3881;SDS011;1956;53.482;10.238;2023-04-03T17:49:46;2.87;;;1.40;;
3881;SDS011;1956;53.482;10.238;2023-04-03T17:54:46;4.00;;;1.43;;
3881;SDS011;1956;53.482;10.238;2023-04-03T17:59:46;2.90;;;1.45;;
3881;SDS011;1956;53.482;10.238;2023-04-03T18:04:49;1.77;;;1.20;;
3881;SDS011;1956;53.482;10.238;2023-04-03T18:09:49;2.07;;;1.57;;
3881;SDS011;1956;53.482;10.238;2023-04-03T18:14:51;1.83;;;1.10;;
3881;SDS011;1956;53.482;10.238;2023-04-03T18:19:51;3.13;;;1.50;;
3881;SDS011;1956;53.482;10.238;2023-04-03T18:24:52;1.30;;;1.20;;
3881;SDS011;1956;53.482;10.238;2023-04-03T18:29:53;6.60;;;1.40;;
3881;SDS011;1956;53.482;10.238;2023-04-03T18:34:55;0.80;;;0.80;;
3881;SDS011;1956;53.482;10.238;2023-04-03T18:39:55;3.23;;;1.07;;
3881;SDS011;1956;53.482;10.238;2023-04-03T18:44:56;5.93;;;1.63;;
3881;SDS011;1956;53.482;10.238;2023-04-03T18:49:58;5.03;;;1.37;;
3881;SDS011;1956;53.482;10.238;2023-04-03T18:54:58;1.83;;;1.00;;
3881;SDS011;1956;53.482;10.238;2023-04-03T18:59:58;4.00;;;1.20;;
3881;SDS011;1956;53.482;10.238;2023-04-03T19:04:59;2.27;;;1.37;;
3881;SDS011;1956;53.482;10.238;2023-04-03T19:10:00;4.87;;;1.63;;
3881;SDS011;1956;53.482;10.238;2023-04-03T19:15:00;5.17;;;1.60;;
3881;SDS011;1956;53.482;10.238;2023-04-03T19:20:01;3.53;;;1.20;;
3881;SDS011;1956;53.482;10.238;2023-04-03T19:25:01;4.00;;;1.70;;
3881;SDS011;1956;53.482;10.238;2023-04-03T19:30:03;4.70;;;1.10;;
3881;SDS011;1956;53.482;10.238;2023-04-03T19:35:03;3.50;;;1.20;;
3881;SDS011;1956;53.482;10.238;2023-04-03T19:40:04;2.50;;;0.87;;
3881;SDS011;1956;53.482;10.238;2023-04-03T19:45:05;2.70;;;0.93;;
3881;SDS011;1956;53.482;10.238;2023-04-03T19:50:06;3.80;;;0.90;;
3881;SDS011;1956;53.482;10.238;2023-04-03T19:55:06;3.10;;;1.50;;
3881;SDS011;1956;53.482;10.238;2023-04-03T20:00:07;3.83;;;1.70;;
3881;SDS011;1956;53.482;10.238;2023-04-03T20:05:07;1.70;;;1.40;;
3881;SDS011;1956;53.482;10.238;2023-04-03T20:10:08;3.17;;;1.57;;
3881;SDS011;1956;53.482;10.238;2023-04-03T20:15:09;3.40;;;1.67;;
3881;SDS011;1956;53.482;10.238;2023-04-03T20:20:09;13.80;;;1.73;;
3881;SDS011;1956;53.482;10.238;2023-04-03T20:25:10;1.67;;;1.20;;
3881;SDS011;1956;53.482;10.238;2023-04-03T20:30:12;1.67;;;1.13;;
3881;SDS011;1956;53.482;10.238;2023-04-03T20:35:13;2.90;;;1.57;;
3881;SDS011;1956;53.482;10.238;2023-04-03T20:40:13;4.70;;;1.20;;
3881;SDS011;1956;53.482;10.238;2023-04-03T20:45:14;3.57;;;1.50;;
3881;SDS011;1956;53.482;10.238;2023-04-03T20:50:14;3.20;;;1.70;;
3881;SDS011;1956;53.482;10.238;2023-04-03T20:55:15;2.88;;;1.40;;
3881;SDS011;1956;53.482;10.238;2023-04-03T21:00:15;2.27;;;1.43;;
3881;SDS011;1956;53.482;10.238;2023-04-03T21:05:18;3.43;;;1.90;;
3881;SDS011;1956;53.482;10.238;2023-04-03T21:21:00;5.90;;;1.50;;
3881;SDS011;1956;53.482;10.238;2023-04-03T21:26:00;5.60;;;2.23;;
3881;SDS011;1956;53.482;10.238;2023-04-03T21:31:01;2.17;;;1.83;;
3881;SDS011;1956;53.482;10.238;2023-04-03T21:36:01;3.00;;;1.90;;
3881;SDS011;1956;53.482;10.238;2023-04-03T21:41:02;6.27;;;1.47;;
3881;SDS011;1956;53.482;10.238;2023-04-03T21:46:03;3.67;;;1.58;;
3881;SDS011;1956;53.482;10.238;2023-04-03T21:51:04;4.57;;;1.70;;
3881;SDS011;1956;53.482;10.238;2023-04-03T21:56:05;8.80;;;2.00;;
3881;SDS011;1956;53.482;10.238;2023-04-03T22:01:09;2.33;;;1.27;;
3881;SDS011;1956;53.482;10.238;2023-04-03T22:06:10;5.77;;;1.47;;
3881;SDS011;1956;53.482;10.238;2023-04-03T22:11:11;2.63;;;1.60;;
3881;SDS011;1956;53.482;10.238;2023-04-03T22:16:12;1.07;;;0.87;;
3881;SDS011;1956;53.482;10.238;2023-04-03T22:21:13;4.00;;;1.17;;
3881;SDS011;1956;53.482;10.238;2023-04-03T22:26:13;4.15;;;1.52;;
3881;SDS011;1956;53.482;10.238;2023-04-03T22:31:13;2.65;;;1.50;;
3881;SDS011;1956;53.482;10.238;2023-04-03T22:36:15;5.43;;;1.10;;
3881;SDS011;1956;53.482;10.238;2023-04-03T22:41:15;2.00;;;1.55;;
3881;SDS011;1956;53.482;10.238;2023-04-03T22:46:15;2.47;;;1.00;;
3881;SDS011;1956;53.482;10.238;2023-04-03T22:51:15;7.37;;;1.53;;
3881;SDS011;1956;53.482;10.238;2023-04-03T22:56:16;1.57;;;1.10;;
3881;SDS011;1956;53.482;10.238;2023-04-03T23:01:16;3.97;;;1.40;;
3881;SDS011;1956;53.482;10.238;2023-04-03T23:06:18;5.73;;;1.33;;
3881;SDS011;1956;53.482;10.238;2023-04-03T23:11:18;1.90;;;1.20;;
3881;SDS011;1956;53.482;10.238;2023-04-03T23:16:18;3.50;;;1.13;;
3881;SDS011;1956;53.482;10.238;2023-04-03T23:21:19;2.70;;;1.13;;
3881;SDS011;1956;53.482;10.238;2023-04-03T23:26:19;2.93;;;1.50;;
3881;SDS011;1956;53.482;10.238;2023-04-03T23:31:20;1.52;;;1.20;;
3881;SDS011;1956;53.482;10.238;2023-04-03T23:36:20;3.90;;;1.10;;
3881;SDS011;1956;53.482;10.238;2023-04-03T23:41:20;1.90;;;1.20;;
3881;SDS011;1956;53.482;10.238;2023-04-03T23:46:21;2.93;;;1.30;;
3881;SDS011;1956;53.482;10.238;2023-04-03T23:51:21;3.33;;;1.07;;
3881;SDS011;1956;53.482;10.238;2023-04-03T23:56:22;1.95;;;1.25;;
